sensor_id;sensor_type;location;lat;lon;timestamp;P1;durP1;ratioP1;P2;durP2;ratioP2
26977;SDS011;56314;48.088;11.642;2022-09-25T00:00:09;9.10;;;8.10;;
26977;SDS011;56314;48.088;11.642;2022-09-25T00:02:35;10.27;;;8.05;;
26977;SDS011;56314;48.088;11.642;2022-09-25T00:05:00;11.13;;;7.63;;
26977;SDS011;56314;48.088;11.642;2022-09-25T00:07:25;9.63;;;8.50;;
26977;SDS011;56314;48.088;11.642;2022-09-25T00:09:51;10.57;;;8.52;;
26977;SDS011;56314;48.088;11.642;2022-09-25T00:12:16;12.30;;;8.70;;
26977;SDS011;56314;48.088;11.642;2022-09-25T00:14:41;9.27;;;8.18;;
26977;SDS011;56314;48.088;11.642;2022-09-25T00:17:07;9.40;;;8.43;;
26977;SDS011;56314;48.088;11.642;2022-09-25T00:19:32;11.13;;;8.63;;
26977;SDS011;56314;48.088;11.642;2022-09-25T00:22:16;9.27;;;8.07;;
26977;SDS011;56314;48.088;11.642;2022-09-25T00:24:45;10.32;;;8.73;;
26977;SDS011;56314;48.088;11.642;2022-09-25T00:27:11;9.30;;;8.40;;
26977;SDS011;56314;48.088;11.642;2022-09-25T00:29:38;10.48;;;8.57;;
26977;SDS011;56314;48.088;11.642;2022-09-25T00:32:04;9.57;;;8.68;;
26977;SDS011;56314;48.088;11.642;2022-09-25T00:34:31;9.48;;;8.48;;
26977;SDS011;56314;48.088;11.642;2022-09-25T00:36:56;12.18;;;9.10;;
26977;SDS011;56314;48.088;11.642;2022-09-25T00:39:22;10.60;;;8.38;;
26977;SDS011;56314;48.088;11.642;2022-09-25T00:41:48;9.55;;;8.65;;
26977;SDS011;56314;48.088;11.642;2022-09-25T00:47:44;11.18;;;8.35;;
26977;SDS011;56314;48.088;11.642;2022-09-25T00:53:04;10.68;;;8.57;;
26977;SDS011;56314;48.088;11.642;2022-09-25T00:55:33;10.18;;;8.95;;
26977;SDS011;56314;48.088;11.642;2022-09-25T00:58:02;9.55;;;8.05;;
26977;SDS011;56314;48.088;11.642;2022-09-25T01:00:29;12.10;;;8.70;;
26977;SDS011;56314;48.088;11.642;2022-09-25T01:02:55;9.73;;;8.70;;
26977;SDS011;56314;48.088;11.642;2022-09-25T01:05:24;11.05;;;8.68;;
26977;SDS011;56314;48.088;11.642;2022-09-25T01:10:23;12.27;;;8.30;;
26977;SDS011;56314;48.088;11.642;2022-09-25T01:12:49;9.00;;;7.63;;
26977;SDS011;56314;48.088;11.642;2022-09-25T01:15:16;9.43;;;7.97;;
26977;SDS011;56314;48.088;11.642;2022-09-25T01:22:55;8.90;;;7.90;;
26977;SDS011;56314;48.088;11.642;2022-09-25T01:31:59;9.07;;;8.15;;
26977;SDS011;56314;48.088;11.642;2022-09-25T01:34:49;8.85;;;7.75;;
26977;SDS011;56314;48.088;11.642;2022-09-25T01:40:26;8.07;;;7.13;;
26977;SDS011;56314;48.088;11.642;2022-09-25T01:45:41;9.32;;;7.05;;
26977;SDS011;56314;48.088;11.642;2022-09-25T01:48:12;8.38;;;7.40;;
26977;SDS011;56314;48.088;11.642;2022-09-25T01:51:15;9.07;;;6.75;;
26977;SDS011;56314;48.088;11.642;2022-09-25T01:53:59;8.43;;;7.35;;
26977;SDS011;56314;48.088;11.642;2022-09-25T01:59:17;6.60;;;6.00;;
26977;SDS011;56314;48.088;11.642;2022-09-25T02:01:48;9.10;;;6.70;;
26977;SDS011;56314;48.088;11.642;2022-09-25T02:04:18;7.50;;;6.80;;
26977;SDS011;56314;48.088;11.642;2022-09-25T02:06:46;8.65;;;6.45;;
26977;SDS011;56314;48.088;11.642;2022-09-25T02:09:18;9.00;;;7.05;;
26977;SDS011;56314;48.088;11.642;2022-09-25T02:14:50;8.05;;;6.43;;
26977;SDS011;56314;48.088;11.642;2022-09-25T02:17:17;7.07;;;6.38;;
26977;SDS011;56314;48.088;11.642;2022-09-25T02:20:07;8.23;;;6.53;;
26977;SDS011;56314;48.088;11.642;2022-09-25T02:22:52;6.07;;;5.47;;
26977;SDS011;56314;48.088;11.642;2022-09-25T02:25:22;6.38;;;5.78;;
26977;SDS011;56314;48.088;11.642;2022-09-25T02:27:55;7.43;;;6.60;;
26977;SDS011;56314;48.088;11.642;2022-09-25T02:30:20;6.68;;;5.90;;
26977;SDS011;56314;48.088;11.642;2022-09-25T02:32:45;6.28;;;5.55;;
26977;SDS011;56314;48.088;11.642;2022-09-25T02:35:11;6.93;;;6.25;;
26977;SDS011;56314;48.088;11.642;2022-09-25T02:37:36;5.90;;;5.28;;
26977;SDS011;56314;48.088;11.642;2022-09-25T02:40:01;6.47;;;5.15;;
26977;SDS011;56314;48.088;11.642;2022-09-25T02:50:37;5.97;;;5.47;;
26977;SDS011;56314;48.088;11.642;2022-09-25T02:55:44;5.22;;;4.75;;
26977;SDS011;56314;48.088;11.642;2022-09-25T02:58:19;6.20;;;4.82;;
26977;SDS011;56314;48.088;11.642;2022-09-25T03:00:49;7.55;;;5.20;;
26977;SDS011;56314;48.088;11.642;2022-09-25T03:03:16;5.53;;;5.03;;
26977;SDS011;56314;48.088;11.642;2022-09-25T03:05:45;5.53;;;4.63;;
26977;SDS011;56314;48.088;11.642;2022-09-25T03:08:13;5.30;;;4.80;;
26977;SDS011;56314;48.088;11.642;2022-09-25T03:10:57;4.90;;;4.40;;
26977;SDS011;56314;48.088;11.642;2022-09-25T03:13:24;5.03;;;4.53;;
26977;SDS011;56314;48.088;11.642;2022-09-25T03:15:56;5.80;;;4.63;;
26977;SDS011;56314;48.088;11.642;2022-09-25T03:18:24;4.95;;;4.45;;
26977;SDS011;56314;48.088;11.642;2022-09-25T03:20:50;6.63;;;4.80;;
26977;SDS011;56314;48.088;11.642;2022-09-25T03:23:16;5.72;;;5.13;;
26977;SDS011;56314;48.088;11.642;2022-09-25T03:25:42;5.30;;;4.80;;
26977;SDS011;56314;48.088;11.642;2022-09-25T03:28:08;5.40;;;4.90;;
26977;SDS011;56314;48.088;11.642;2022-09-25T03:30:34;5.35;;;4.85;;
26977;SDS011;56314;48.088;11.642;2022-09-25T03:33:01;6.10;;;4.88;;
26977;SDS011;56314;48.088;11.642;2022-09-25T03:35:26;6.78;;;5.03;;
26977;SDS011;56314;48.088;11.642;2022-09-25T03:37:51;8.48;;;6.13;;
26977;SDS011;56314;48.088;11.642;2022-09-25T03:40:17;5.65;;;5.15;;
26977;SDS011;56314;48.088;11.642;2022-09-25T03:42:42;5.65;;;5.13;;
26977;SDS011;56314;48.088;11.642;2022-09-25T03:45:08;6.07;;;4.75;;
26977;SDS011;56314;48.088;11.642;2022-09-25T03:47:34;6.55;;;4.78;;
26977;SDS011;56314;48.088;11.642;2022-09-25T03:49:59;5.32;;;4.80;;
26977;SDS011;56314;48.088;11.642;2022-09-25T03:52:25;5.22;;;4.72;;
26977;SDS011;56314;48.088;11.642;2022-09-25T03:54:50;7.63;;;6.20;;
26977;SDS011;56314;48.088;11.642;2022-09-25T03:57:15;7.05;;;5.53;;
26977;SDS011;56314;48.088;11.642;2022-09-25T03:59:41;6.70;;;5.32;;
26977;SDS011;56314;48.088;11.642;2022-09-25T04:02:06;8.65;;;5.13;;
26977;SDS011;56314;48.088;11.642;2022-09-25T04:04:32;5.82;;;4.57;;
26977;SDS011;56314;48.088;11.642;2022-09-25T04:06:58;4.88;;;4.47;;
26977;SDS011;56314;48.088;11.642;2022-09-25T04:09:23;5.43;;;4.68;;
26977;SDS011;56314;48.088;11.642;2022-09-25T04:11:48;5.03;;;4.50;;
26977;SDS011;56314;48.088;11.642;2022-09-25T04:14:14;4.72;;;4.32;;
26977;SDS011;56314;48.088;11.642;2022-09-25T04:16:40;6.93;;;4.72;;
26977;SDS011;56314;48.088;11.642;2022-09-25T04:19:05;5.47;;;4.90;;
26977;SDS011;56314;48.088;11.642;2022-09-25T04:21:31;5.95;;;4.70;;
26977;SDS011;56314;48.088;11.642;2022-09-25T04:23:57;6.20;;;5.15;;
26977;SDS011;56314;48.088;11.642;2022-09-25T04:26:41;5.22;;;4.72;;
26977;SDS011;56314;48.088;11.642;2022-09-25T04:29:06;5.65;;;4.85;;
26977;SDS011;56314;48.088;11.642;2022-09-25T04:31:32;5.95;;;5.10;;
26977;SDS011;56314;48.088;11.642;2022-09-25T04:33:58;5.55;;;5.05;;
26977;SDS011;56314;48.088;11.642;2022-09-25T04:36:23;6.47;;;5.50;;
26977;SDS011;56314;48.088;11.642;2022-09-25T04:38:48;5.75;;;4.85;;
26977;SDS011;56314;48.088;11.642;2022-09-25T04:41:14;5.15;;;4.47;;
26977;SDS011;56314;48.088;11.642;2022-09-25T04:43:40;4.95;;;4.40;;
26977;SDS011;56314;48.088;11.642;2022-09-25T04:46:08;6.53;;;4.25;;
26977;SDS011;56314;48.088;11.642;2022-09-25T04:48:35;6.43;;;4.43;;
26977;SDS011;56314;48.088;11.642;2022-09-25T04:51:01;4.78;;;4.30;;
26977;SDS011;56314;48.088;11.642;2022-09-25T04:53:27;4.65;;;4.00;;
26977;SDS011;56314;48.088;11.642;2022-09-25T04:55:59;5.03;;;4.50;;
26977;SDS011;56314;48.088;11.642;2022-09-25T05:00:54;4.90;;;4.00;;
26977;SDS011;56314;48.088;11.642;2022-09-25T05:03:20;4.40;;;4.00;;
26977;SDS011;56314;48.088;11.642;2022-09-25T05:05:45;4.53;;;4.10;;
26977;SDS011;56314;48.088;11.642;2022-09-25T05:08:10;4.45;;;4.05;;
26977;SDS011;56314;48.088;11.642;2022-09-25T05:10:36;4.05;;;3.65;;
26977;SDS011;56314;48.088;11.642;2022-09-25T05:13:04;4.57;;;4.10;;
26977;SDS011;56314;48.088;11.642;2022-09-25T05:15:30;5.47;;;4.40;;
26977;SDS011;56314;48.088;11.642;2022-09-25T05:18:04;4.90;;;4.35;;
26977;SDS011;56314;48.088;11.642;2022-09-25T05:20:39;6.13;;;4.15;;
26977;SDS011;56314;48.088;11.642;2022-09-25T05:23:04;6.38;;;4.28;;
26977;SDS011;56314;48.088;11.642;2022-09-25T05:25:30;5.10;;;4.18;;
26977;SDS011;56314;48.088;11.642;2022-09-25T05:27:56;4.40;;;4.00;;
26977;SDS011;56314;48.088;11.642;2022-09-25T05:30:23;7.00;;;4.25;;
26977;SDS011;56314;48.088;11.642;2022-09-25T05:32:49;4.88;;;4.15;;
26977;SDS011;56314;48.088;11.642;2022-09-25T05:35:20;5.63;;;4.60;;
26977;SDS011;56314;48.088;11.642;2022-09-25T05:37:48;4.50;;;4.10;;
26977;SDS011;56314;48.088;11.642;2022-09-25T05:40:14;3.65;;;3.35;;
26977;SDS011;56314;48.088;11.642;2022-09-25T05:42:43;7.82;;;4.22;;
26977;SDS011;56314;48.088;11.642;2022-09-25T05:45:09;5.28;;;4.45;;
26977;SDS011;56314;48.088;11.642;2022-09-25T05:47:36;4.05;;;3.63;;
26977;SDS011;56314;48.088;11.642;2022-09-25T05:50:02;4.10;;;3.70;;
26977;SDS011;56314;48.088;11.642;2022-09-25T05:52:28;4.35;;;3.95;;
26977;SDS011;56314;48.088;11.642;2022-09-25T05:54:54;5.47;;;4.13;;
26977;SDS011;56314;48.088;11.642;2022-09-25T05:57:20;4.35;;;3.95;;
26977;SDS011;56314;48.088;11.642;2022-09-25T05:59:46;4.32;;;3.60;;
26977;SDS011;56314;48.088;11.642;2022-09-25T06:02:13;4.30;;;3.90;;
26977;SDS011;56314;48.088;11.642;2022-09-25T06:04:38;4.40;;;4.00;;
26977;SDS011;56314;48.088;11.642;2022-09-25T06:07:04;4.70;;;4.25;;
26977;SDS011;56314;48.088;11.642;2022-09-25T06:09:29;4.25;;;3.85;;
26977;SDS011;56314;48.088;11.642;2022-09-25T06:11:55;5.18;;;4.13;;
26977;SDS011;56314;48.088;11.642;2022-09-25T06:14:20;4.50;;;4.10;;
26977;SDS011;56314;48.088;11.642;2022-09-25T06:16:46;6.68;;;5.03;;
26977;SDS011;56314;48.088;11.642;2022-09-25T06:19:14;7.10;;;4.57;;
26977;SDS011;56314;48.088;11.642;2022-09-25T06:21:41;5.28;;;4.78;;
26977;SDS011;56314;48.088;11.642;2022-09-25T06:24:07;5.22;;;4.50;;
26977;SDS011;56314;48.088;11.642;2022-09-25T06:26:33;5.68;;;4.90;;
26977;SDS011;56314;48.088;11.642;2022-09-25T06:28:59;5.78;;;5.18;;
26977;SDS011;56314;48.088;11.642;2022-09-25T06:31:24;5.93;;;4.93;;
26977;SDS011;56314;48.088;11.642;2022-09-25T06:33:50;5.90;;;5.32;;
26977;SDS011;56314;48.088;11.642;2022-09-25T06:36:15;7.85;;;5.38;;
26977;SDS011;56314;48.088;11.642;2022-09-25T06:38:41;5.97;;;5.05;;
26977;SDS011;56314;48.088;11.642;2022-09-25T06:41:06;5.18;;;4.68;;
26977;SDS011;56314;48.088;11.642;2022-09-25T06:43:31;8.02;;;4.90;;
26977;SDS011;56314;48.088;11.642;2022-09-25T06:46:00;4.68;;;4.18;;
26977;SDS011;56314;48.088;11.642;2022-09-25T06:48:27;4.72;;;4.32;;
26977;SDS011;56314;48.088;11.642;2022-09-25T06:50:54;5.32;;;4.82;;
26977;SDS011;56314;48.088;11.642;2022-09-25T06:53:22;5.88;;;5.30;;
26977;SDS011;56314;48.088;11.642;2022-09-25T06:55:48;5.75;;;5.15;;
26977;SDS011;56314;48.088;11.642;2022-09-25T06:58:15;5.78;;;4.70;;
26977;SDS011;56314;48.088;11.642;2022-09-25T07:00:47;5.90;;;5.30;;
26977;SDS011;56314;48.088;11.642;2022-09-25T07:03:13;5.05;;;4.55;;
26977;SDS011;56314;48.088;11.642;2022-09-25T07:06:00;6.97;;;4.70;;
26977;SDS011;56314;48.088;11.642;2022-09-25T07:08:27;4.70;;;4.30;;
26977;SDS011;56314;48.088;11.642;2022-09-25T07:10:54;5.45;;;4.68;;
26977;SDS011;56314;48.088;11.642;2022-09-25T07:13:22;4.95;;;4.10;;
26977;SDS011;56314;48.088;11.642;2022-09-25T07:15:50;6.13;;;4.70;;
26977;SDS011;56314;48.088;11.642;2022-09-25T07:18:36;5.65;;;5.00;;
26977;SDS011;56314;48.088;11.642;2022-09-25T07:23:40;5.93;;;5.38;;
26977;SDS011;56314;48.088;11.642;2022-09-25T07:26:17;5.72;;;4.68;;
26977;SDS011;56314;48.088;11.642;2022-09-25T07:28:46;6.25;;;5.20;;
26977;SDS011;56314;48.088;11.642;2022-09-25T07:31:18;8.15;;;5.72;;
26977;SDS011;56314;48.088;11.642;2022-09-25T07:33:45;5.80;;;5.13;;
26977;SDS011;56314;48.088;11.642;2022-09-25T07:36:11;5.93;;;5.43;;
26977;SDS011;56314;48.088;11.642;2022-09-25T07:38:38;5.80;;;5.25;;
26977;SDS011;56314;48.088;11.642;2022-09-25T07:41:04;5.60;;;5.10;;
26977;SDS011;56314;48.088;11.642;2022-09-25T07:43:33;5.65;;;4.75;;
26977;SDS011;56314;48.088;11.642;2022-09-25T07:45:59;5.43;;;4.88;;
26977;SDS011;56314;48.088;11.642;2022-09-25T07:48:25;5.22;;;4.72;;
26977;SDS011;56314;48.088;11.642;2022-09-25T07:50:51;6.80;;;4.75;;
26977;SDS011;56314;48.088;11.642;2022-09-25T07:53:19;4.97;;;4.40;;
26977;SDS011;56314;48.088;11.642;2022-09-25T07:55:45;5.38;;;4.88;;
26977;SDS011;56314;48.088;11.642;2022-09-25T07:58:11;5.35;;;4.45;;
26977;SDS011;56314;48.088;11.642;2022-09-25T08:00:37;6.03;;;5.28;;
26977;SDS011;56314;48.088;11.642;2022-09-25T08:03:04;5.03;;;4.53;;
26977;SDS011;56314;48.088;11.642;2022-09-25T08:05:30;8.00;;;5.07;;
26977;SDS011;56314;48.088;11.642;2022-09-25T08:07:56;6.13;;;5.10;;
26977;SDS011;56314;48.088;11.642;2022-09-25T08:10:21;6.55;;;5.95;;
26977;SDS011;56314;48.088;11.642;2022-09-25T08:12:47;7.07;;;5.63;;
26977;SDS011;56314;48.088;11.642;2022-09-25T08:15:13;6.15;;;5.55;;
26977;SDS011;56314;48.088;11.642;2022-09-25T08:17:39;6.78;;;6.18;;
26977;SDS011;56314;48.088;11.642;2022-09-25T08:20:05;6.60;;;6.00;;
26977;SDS011;56314;48.088;11.642;2022-09-25T08:22:31;7.50;;;6.45;;
26977;SDS011;56314;48.088;11.642;2022-09-25T08:24:57;12.50;;;6.68;;
26977;SDS011;56314;48.088;11.642;2022-09-25T08:27:23;7.75;;;6.88;;
26977;SDS011;56314;48.088;11.642;2022-09-25T08:29:48;8.02;;;7.22;;
26977;SDS011;56314;48.088;11.642;2022-09-25T08:32:13;7.10;;;6.50;;
26977;SDS011;56314;48.088;11.642;2022-09-25T08:34:39;8.10;;;7.35;;
26977;SDS011;56314;48.088;11.642;2022-09-25T08:37:06;9.13;;;7.43;;
26977;SDS011;56314;48.088;11.642;2022-09-25T08:39:32;8.43;;;7.63;;
26977;SDS011;56314;48.088;11.642;2022-09-25T08:41:58;9.32;;;8.32;;
26977;SDS011;56314;48.088;11.642;2022-09-25T08:44:29;10.93;;;9.13;;
26977;SDS011;56314;48.088;11.642;2022-09-25T08:47:03;9.40;;;8.50;;
26977;SDS011;56314;48.088;11.642;2022-09-25T08:52:28;10.95;;;9.85;;
26977;SDS011;56314;48.088;11.642;2022-09-25T08:54:55;14.05;;;10.52;;
26977;SDS011;56314;48.088;11.642;2022-09-25T08:57:31;11.05;;;10.00;;
26977;SDS011;56314;48.088;11.642;2022-09-25T09:00:04;12.90;;;11.60;;
26977;SDS011;56314;48.088;11.642;2022-09-25T09:02:38;12.00;;;10.68;;
26977;SDS011;56314;48.088;11.642;2022-09-25T09:05:08;12.43;;;11.20;;
26977;SDS011;56314;48.088;11.642;2022-09-25T09:07:42;11.65;;;10.25;;
26977;SDS011;56314;48.088;11.642;2022-09-25T09:10:18;13.55;;;11.38;;
26977;SDS011;56314;48.088;11.642;2022-09-25T09:12:47;11.60;;;10.40;;
26977;SDS011;56314;48.088;11.642;2022-09-25T09:17:42;13.60;;;12.30;;
26977;SDS011;56314;48.088;11.642;2022-09-25T09:20:15;14.27;;;12.65;;
26977;SDS011;56314;48.088;11.642;2022-09-25T09:22:48;14.48;;;12.98;;
26977;SDS011;56314;48.088;11.642;2022-09-25T09:25:32;14.10;;;12.63;;
26977;SDS011;56314;48.088;11.642;2022-09-25T09:31:21;15.18;;;13.57;;
26977;SDS011;56314;48.088;11.642;2022-09-25T09:36:55;16.60;;;13.57;;
26977;SDS011;56314;48.088;11.642;2022-09-25T09:39:33;14.73;;;13.23;;
26977;SDS011;56314;48.088;11.642;2022-09-25T09:47:59;15.85;;;13.60;;
26977;SDS011;56314;48.088;11.642;2022-09-25T09:53:32;15.82;;;12.55;;
26977;SDS011;56314;48.088;11.642;2022-09-25T09:56:03;15.20;;;13.18;;
26977;SDS011;56314;48.088;11.642;2022-09-25T09:58:46;16.73;;;14.23;;
26977;SDS011;56314;48.088;11.642;2022-09-25T10:01:36;17.23;;;14.70;;
26977;SDS011;56314;48.088;11.642;2022-09-25T10:04:06;20.38;;;14.25;;
26977;SDS011;56314;48.088;11.642;2022-09-25T10:06:38;16.63;;;13.45;;
26977;SDS011;56314;48.088;11.642;2022-09-25T10:09:09;14.77;;;13.17;;
26977;SDS011;56314;48.088;11.642;2022-09-25T10:11:38;14.27;;;12.02;;
26977;SDS011;56314;48.088;11.642;2022-09-25T10:14:04;16.27;;;12.88;;
26977;SDS011;56314;48.088;11.642;2022-09-25T10:16:34;14.63;;;12.20;;
26977;SDS011;56314;48.088;11.642;2022-09-25T10:24:44;12.70;;;11.40;;
26977;SDS011;56314;48.088;11.642;2022-09-25T10:28:00;12.45;;;11.15;;
26977;SDS011;56314;48.088;11.642;2022-09-25T10:32:34;12.70;;;11.30;;
26977;SDS011;56314;48.088;11.642;2022-09-25T10:35:11;14.07;;;11.27;;
26977;SDS011;56314;48.088;11.642;2022-09-25T10:37:38;14.33;;;11.83;;
26977;SDS011;56314;48.088;11.642;2022-09-25T10:40:06;14.25;;;12.75;;
26977;SDS011;56314;48.088;11.642;2022-09-25T10:42:46;13.50;;;12.10;;
26977;SDS011;56314;48.088;11.642;2022-09-25T10:47:46;12.48;;;11.27;;
26977;SDS011;56314;48.088;11.642;2022-09-25T10:50:32;13.60;;;11.60;;
26977;SDS011;56314;48.088;11.642;2022-09-25T10:53:00;13.82;;;11.82;;
26977;SDS011;56314;48.088;11.642;2022-09-25T10:55:31;13.15;;;11.27;;
26977;SDS011;56314;48.088;11.642;2022-09-25T11:00:30;13.27;;;11.90;;
26977;SDS011;56314;48.088;11.642;2022-09-25T11:03:01;13.23;;;11.43;;
26977;SDS011;56314;48.088;11.642;2022-09-25T11:05:29;10.18;;;9.15;;
26977;SDS011;56314;48.088;11.642;2022-09-25T11:07:58;10.48;;;9.48;;
26977;SDS011;56314;48.088;11.642;2022-09-25T11:10:27;11.07;;;9.88;;
26977;SDS011;56314;48.088;11.642;2022-09-25T11:13:21;10.77;;;8.95;;
26977;SDS011;56314;48.088;11.642;2022-09-25T11:15:56;9.77;;;8.77;;
26977;SDS011;56314;48.088;11.642;2022-09-25T11:18:41;10.48;;;9.15;;
26977;SDS011;56314;48.088;11.642;2022-09-25T11:29:20;7.80;;;7.00;;
26977;SDS011;56314;48.088;11.642;2022-09-25T11:31:53;7.43;;;6.70;;
26977;SDS011;56314;48.088;11.642;2022-09-25T11:39:48;7.68;;;6.70;;
26977;SDS011;56314;48.088;11.642;2022-09-25T11:46:15;7.68;;;6.38;;
26977;SDS011;56314;48.088;11.642;2022-09-25T11:49:36;8.48;;;6.93;;
26977;SDS011;56314;48.088;11.642;2022-09-25T12:14:02;6.80;;;6.15;;
26977;SDS011;56314;48.088;11.642;2022-09-25T12:27:33;5.97;;;5.22;;
26977;SDS011;56314;48.088;11.642;2022-09-25T12:30:19;5.70;;;5.03;;
26977;SDS011;56314;48.088;11.642;2022-09-25T12:33:41;8.43;;;5.75;;
26977;SDS011;56314;48.088;11.642;2022-09-25T12:39:02;10.45;;;7.78;;
26977;SDS011;56314;48.088;11.642;2022-09-25T12:41:41;9.27;;;8.38;;
26977;SDS011;56314;48.088;11.642;2022-09-25T12:44:58;10.98;;;8.30;;
26977;SDS011;56314;48.088;11.642;2022-09-25T12:49:48;9.82;;;8.80;;
26977;SDS011;56314;48.088;11.642;2022-09-25T12:52:36;9.48;;;8.40;;
26977;SDS011;56314;48.088;11.642;2022-09-25T12:55:31;9.63;;;8.63;;
26977;SDS011;56314;48.088;11.642;2022-09-25T12:58:15;10.60;;;9.50;;
26977;SDS011;56314;48.088;11.642;2022-09-25T13:00:53;11.57;;;10.25;;
26977;SDS011;56314;48.088;11.642;2022-09-25T13:04:12;10.73;;;9.63;;
26977;SDS011;56314;48.088;11.642;2022-09-25T13:06:18;11.50;;;10.30;;
26977;SDS011;56314;48.088;11.642;2022-09-25T13:09:11;12.43;;;11.13;;
26977;SDS011;56314;48.088;11.642;2022-09-25T13:14:29;14.35;;;12.60;;
26977;SDS011;56314;48.088;11.642;2022-09-25T13:17:21;15.15;;;12.48;;
26977;SDS011;56314;48.088;11.642;2022-09-25T13:19:49;14.65;;;11.95;;
26977;SDS011;56314;48.088;11.642;2022-09-25T13:27:29;16.73;;;13.25;;
26977;SDS011;56314;48.088;11.642;2022-09-25T13:32:53;15.75;;;14.05;;
26977;SDS011;56314;48.088;11.642;2022-09-25T13:35:21;16.27;;;13.75;;
26977;SDS011;56314;48.088;11.642;2022-09-25T13:37:51;18.30;;;14.57;;
26977;SDS011;56314;48.088;11.642;2022-09-25T13:40:20;17.75;;;15.65;;
26977;SDS011;56314;48.088;11.642;2022-09-25T13:45:45;17.92;;;15.00;;
26977;SDS011;56314;48.088;11.642;2022-09-25T14:06:47;19.30;;;13.93;;
26977;SDS011;56314;48.088;11.642;2022-09-25T14:09:19;18.60;;;14.35;;
26977;SDS011;56314;48.088;11.642;2022-09-25T14:14:38;20.85;;;15.90;;
26977;SDS011;56314;48.088;11.642;2022-09-25T14:17:16;19.48;;;15.45;;
26977;SDS011;56314;48.088;11.642;2022-09-25T14:19:44;17.85;;;14.65;;
26977;SDS011;56314;48.088;11.642;2022-09-25T14:22:32;20.13;;;15.48;;
26977;SDS011;56314;48.088;11.642;2022-09-25T14:24:59;19.05;;;15.90;;
26977;SDS011;56314;48.088;11.642;2022-09-25T14:27:26;19.67;;;15.98;;
26977;SDS011;56314;48.088;11.642;2022-09-25T14:30:01;19.70;;;15.27;;
26977;SDS011;56314;48.088;11.642;2022-09-25T14:32:45;21.58;;;16.38;;
26977;SDS011;56314;48.088;11.642;2022-09-25T14:35:18;21.40;;;17.08;;
26977;SDS011;56314;48.088;11.642;2022-09-25T14:41:07;23.80;;;16.83;;
26977;SDS011;56314;48.088;11.642;2022-09-25T14:43:39;24.38;;;16.98;;
26977;SDS011;56314;48.088;11.642;2022-09-25T14:46:19;19.73;;;14.48;;
26977;SDS011;56314;48.088;11.642;2022-09-25T14:51:41;17.10;;;14.35;;
26977;SDS011;56314;48.088;11.642;2022-09-25T14:54:06;19.45;;;15.32;;
26977;SDS011;56314;48.088;11.642;2022-09-25T14:56:38;19.83;;;15.38;;
26977;SDS011;56314;48.088;11.642;2022-09-25T14:59:08;21.40;;;15.43;;
26977;SDS011;56314;48.088;11.642;2022-09-25T15:01:44;18.85;;;15.85;;
26977;SDS011;56314;48.088;11.642;2022-09-25T15:04:12;19.30;;;15.80;;
26977;SDS011;56314;48.088;11.642;2022-09-25T15:06:56;17.80;;;15.25;;
26977;SDS011;56314;48.088;11.642;2022-09-25T15:11:53;20.90;;;16.75;;
26977;SDS011;56314;48.088;11.642;2022-09-25T15:14:19;19.23;;;16.13;;
26977;SDS011;56314;48.088;11.642;2022-09-25T15:16:46;20.30;;;15.40;;
26977;SDS011;56314;48.088;11.642;2022-09-25T15:19:30;18.73;;;15.85;;
26977;SDS011;56314;48.088;11.642;2022-09-25T15:21:59;20.58;;;14.93;;
26977;SDS011;56314;48.088;11.642;2022-09-25T15:24:26;17.77;;;15.55;;
26977;SDS011;56314;48.088;11.642;2022-09-25T15:27:02;19.92;;;16.90;;
26977;SDS011;56314;48.088;11.642;2022-09-25T15:29:32;32.63;;;27.48;;
26977;SDS011;56314;48.088;11.642;2022-09-25T15:32:01;20.23;;;15.80;;
26977;SDS011;56314;48.088;11.642;2022-09-25T15:34:28;17.13;;;15.27;;
26977;SDS011;56314;48.088;11.642;2022-09-25T15:39:53;16.45;;;14.70;;
26977;SDS011;56314;48.088;11.642;2022-09-25T15:42:19;17.50;;;15.70;;
26977;SDS011;56314;48.088;11.642;2022-09-25T15:44:45;20.30;;;16.48;;
26977;SDS011;56314;48.088;11.642;2022-09-25T15:47:54;20.35;;;15.80;;
26977;SDS011;56314;48.088;11.642;2022-09-25T15:50:01;20.10;;;16.45;;
26977;SDS011;56314;48.088;11.642;2022-09-25T15:52:30;19.02;;;15.63;;
26977;SDS011;56314;48.088;11.642;2022-09-25T15:55:31;18.73;;;15.68;;
26977;SDS011;56314;48.088;11.642;2022-09-25T15:57:52;21.65;;;16.73;;
26977;SDS011;56314;48.088;11.642;2022-09-25T16:00:23;19.92;;;16.40;;
26977;SDS011;56314;48.088;11.642;2022-09-25T16:05:55;19.80;;;16.13;;
26977;SDS011;56314;48.088;11.642;2022-09-25T16:08:33;20.45;;;16.80;;
26977;SDS011;56314;48.088;11.642;2022-09-25T16:13:49;22.15;;;17.67;;
26977;SDS011;56314;48.088;11.642;2022-09-25T16:18:53;21.40;;;17.05;;
26977;SDS011;56314;48.088;11.642;2022-09-25T16:23:53;22.98;;;17.67;;
26977;SDS011;56314;48.088;11.642;2022-09-25T16:26:22;22.58;;;17.67;;
26977;SDS011;56314;48.088;11.642;2022-09-25T16:31:39;23.92;;;19.02;;
26977;SDS011;56314;48.088;11.642;2022-09-25T16:34:07;23.33;;;18.30;;
26977;SDS011;56314;48.088;11.642;2022-09-25T16:36:49;23.02;;;18.13;;
26977;SDS011;56314;48.088;11.642;2022-09-25T16:39:22;26.58;;;17.60;;
26977;SDS011;56314;48.088;11.642;2022-09-25T16:41:50;24.30;;;17.90;;
26977;SDS011;56314;48.088;11.642;2022-09-25T16:44:18;23.35;;;18.15;;
26977;SDS011;56314;48.088;11.642;2022-09-25T16:49:23;23.10;;;19.20;;
26977;SDS011;56314;48.088;11.642;2022-09-25T16:51:49;27.67;;;19.08;;
26977;SDS011;56314;48.088;11.642;2022-09-25T16:54:17;24.50;;;19.33;;
26977;SDS011;56314;48.088;11.642;2022-09-25T16:56:44;25.95;;;20.65;;
26977;SDS011;56314;48.088;11.642;2022-09-25T16:59:16;25.92;;;20.85;;
26977;SDS011;56314;48.088;11.642;2022-09-25T17:01:43;27.30;;;21.75;;
26977;SDS011;56314;48.088;11.642;2022-09-25T17:04:11;25.40;;;20.48;;
26977;SDS011;56314;48.088;11.642;2022-09-25T17:06:39;27.73;;;22.02;;
26977;SDS011;56314;48.088;11.642;2022-09-25T17:09:12;24.83;;;19.63;;
26977;SDS011;56314;48.088;11.642;2022-09-25T17:11:39;26.67;;;20.38;;
26977;SDS011;56314;48.088;11.642;2022-09-25T17:14:06;25.25;;;19.95;;
26977;SDS011;56314;48.088;11.642;2022-09-25T17:16:32;25.30;;;20.52;;
26977;SDS011;56314;48.088;11.642;2022-09-25T17:18:58;23.73;;;19.52;;
26977;SDS011;56314;48.088;11.642;2022-09-25T17:21:23;20.20;;;17.90;;
26977;SDS011;56314;48.088;11.642;2022-09-25T17:23:49;23.85;;;19.40;;
26977;SDS011;56314;48.088;11.642;2022-09-25T17:26:16;25.17;;;19.98;;
26977;SDS011;56314;48.088;11.642;2022-09-25T17:28:44;26.42;;;19.83;;
26977;SDS011;56314;48.088;11.642;2022-09-25T17:31:10;24.88;;;20.50;;
26977;SDS011;56314;48.088;11.642;2022-09-25T17:33:39;24.30;;;20.67;;
26977;SDS011;56314;48.088;11.642;2022-09-25T17:36:05;25.80;;;21.50;;
26977;SDS011;56314;48.088;11.642;2022-09-25T17:38:33;26.95;;;20.13;;
26977;SDS011;56314;48.088;11.642;2022-09-25T17:40:59;26.48;;;20.92;;
26977;SDS011;56314;48.088;11.642;2022-09-25T17:43:26;24.92;;;19.90;;
26977;SDS011;56314;48.088;11.642;2022-09-25T17:45:52;24.30;;;18.83;;
26977;SDS011;56314;48.088;11.642;2022-09-25T17:48:23;24.45;;;19.88;;
26977;SDS011;56314;48.088;11.642;2022-09-25T17:50:58;24.38;;;18.95;;
26977;SDS011;56314;48.088;11.642;2022-09-25T17:53:26;26.20;;;19.63;;
26977;SDS011;56314;48.088;11.642;2022-09-25T17:55:53;24.40;;;20.00;;
26977;SDS011;56314;48.088;11.642;2022-09-25T17:58:20;28.13;;;20.73;;
26977;SDS011;56314;48.088;11.642;2022-09-25T18:00:47;28.38;;;21.08;;